sensor_id;sensor_type;location;lat;lon;timestamp;temperature;humidity
2477;DHT22;1249;51.270;6.756;2023-04-16T00:01:51;13.30;99.90
2477;DHT22;1249;51.270;6.756;2023-04-16T00:04:17;13.40;99.90
2477;DHT22;1249;51.270;6.756;2023-04-16T00:06:42;13.40;99.90
2477;DHT22;1249;51.270;6.756;2023-04-16T00:09:08;13.30;99.90
2477;DHT22;1249;51.270;6.756;2023-04-16T00:11:34;13.30;99.90
2477;DHT22;1249;51.270;6.756;2023-04-16T00:13:59;13.30;99.90
2477;DHT22;1249;51.270;6.756;2023-04-16T00:16:25;13.30;99.90
2477;DHT22;1249;51.270;6.756;2023-04-16T00:18:50;13.30;99.90
2477;DHT22;1249;51.270;6.756;2023-04-16T00:21:18;13.30;99.90
2477;DHT22;1249;51.270;6.756;2023-04-16T00:23:44;13.30;99.90
2477;DHT22;1249;51.270;6.756;2023-04-16T00:26:10;13.30;99.90
2477;DHT22;1249;51.270;6.756;2023-04-16T00:28:35;13.30;99.90
2477;DHT22;1249;51.270;6.756;2023-04-16T00:31:01;13.30;99.90
2477;DHT22;1249;51.270;6.756;2023-04-16T00:33:27;13.30;99.90
2477;DHT22;1249;51.270;6.756;2023-04-16T00:35:54;13.30;99.90
2477;DHT22;1249;51.270;6.756;2023-04-16T00:38:20;13.30;99.90
2477;DHT22;1249;51.270;6.756;2023-04-16T00:40:45;13.30;99.90
2477;DHT22;1249;51.270;6.756;2023-04-16T00:43:22;13.30;99.90
2477;DHT22;1249;51.270;6.756;2023-04-16T00:45:49;13.20;99.90
2477;DHT22;1249;51.270;6.756;2023-04-16T00:48:15;13.20;99.90
2477;DHT22;1249;51.270;6.756;2023-04-16T00:50:41;13.20;99.90
2477;DHT22;1249;51.270;6.756;2023-04-16T00:53:07;13.20;99.90
2477;DHT22;1249;51.270;6.756;2023-04-16T00:55:33;13.20;99.90
2477;DHT22;1249;51.270;6.756;2023-04-16T00:57:59;13.20;99.90
2477;DHT22;1249;51.270;6.756;2023-04-16T01:00:24;13.20;99.90
2477;DHT22;1249;51.270;6.756;2023-04-16T01:02:52;13.20;99.90
2477;DHT22;1249;51.270;6.756;2023-04-16T01:05:18;13.20;99.90
2477;DHT22;1249;51.270;6.756;2023-04-16T01:07:44;13.20;99.90
2477;DHT22;1249;51.270;6.756;2023-04-16T01:10:09;13.20;99.90
2477;DHT22;1249;51.270;6.756;2023-04-16T01:12:35;13.20;99.90
2477;DHT22;1249;51.270;6.756;2023-04-16T01:15:01;13.20;99.90
2477;DHT22;1249;51.270;6.756;2023-04-16T01:17:26;13.20;99.90
2477;DHT22;1249;51.270;6.756;2023-04-16T01:19:52;13.10;99.90
2477;DHT22;1249;51.270;6.756;2023-04-16T01:22:17;13.10;99.90
2477;DHT22;1249;51.270;6.756;2023-04-16T01:24:43;13.10;99.90
2477;DHT22;1249;51.270;6.756;2023-04-16T01:27:09;13.20;99.90
2477;DHT22;1249;51.270;6.756;2023-04-16T01:29:35;13.10;99.90
2477;DHT22;1249;51.270;6.756;2023-04-16T01:32:00;13.20;99.90
2477;DHT22;1249;51.270;6.756;2023-04-16T01:34:26;13.10;99.90
2477;DHT22;1249;51.270;6.756;2023-04-16T01:36:51;13.20;99.90
2477;DHT22;1249;51.270;6.756;2023-04-16T01:39:20;13.10;99.90
2477;DHT22;1249;51.270;6.756;2023-04-16T01:41:46;13.20;99.90
2477;DHT22;1249;51.270;6.756;2023-04-16T01:44:12;13.10;99.90
2477;DHT22;1249;51.270;6.756;2023-04-16T01:46:37;13.10;99.90
2477;DHT22;1249;51.270;6.756;2023-04-16T01:49:04;13.10;99.90
2477;DHT22;1249;51.270;6.756;2023-04-16T01:51:31;13.10;99.90
2477;DHT22;1249;51.270;6.756;2023-04-16T01:53:57;13.10;99.90
2477;DHT22;1249;51.270;6.756;2023-04-16T01:56:23;13.10;99.90
2477;DHT22;1249;51.270;6.756;2023-04-16T01:58:48;13.10;99.90
2477;DHT22;1249;51.270;6.756;2023-04-16T02:01:14;13.10;99.90
2477;DHT22;1249;51.270;6.756;2023-04-16T02:03:40;13.10;99.90
2477;DHT22;1249;51.270;6.756;2023-04-16T02:06:06;13.00;99.90
2477;DHT22;1249;51.270;6.756;2023-04-16T02:08:31;13.20;99.90
2477;DHT22;1249;51.270;6.756;2023-04-16T02:10:57;13.00;99.90
2477;DHT22;1249;51.270;6.756;2023-04-16T02:13:23;13.00;99.90
2477;DHT22;1249;51.270;6.756;2023-04-16T02:15:51;13.00;99.90
2477;DHT22;1249;51.270;6.756;2023-04-16T02:18:17;13.00;99.90
2477;DHT22;1249;51.270;6.756;2023-04-16T02:20:45;13.10;99.90
2477;DHT22;1249;51.270;6.756;2023-04-16T02:23:11;13.00;99.90
2477;DHT22;1249;51.270;6.756;2023-04-16T02:25:40;13.10;99.90
2477;DHT22;1249;51.270;6.756;2023-04-16T02:28:12;13.00;99.90
2477;DHT22;1249;51.270;6.756;2023-04-16T02:30:38;13.00;99.90
2477;DHT22;1249;51.270;6.756;2023-04-16T02:33:05;13.00;99.90
2477;DHT22;1249;51.270;6.756;2023-04-16T02:35:35;13.00;99.90
2477;DHT22;1249;51.270;6.756;2023-04-16T02:38:01;13.00;99.90
2477;DHT22;1249;51.270;6.756;2023-04-16T02:40:28;13.00;99.90
2477;DHT22;1249;51.270;6.756;2023-04-16T02:42:54;13.00;99.90
2477;DHT22;1249;51.270;6.756;2023-04-16T02:45:20;13.00;99.90
2477;DHT22;1249;51.270;6.756;2023-04-16T02:47:47;13.00;99.90
2477;DHT22;1249;51.270;6.756;2023-04-16T02:50:13;13.00;99.90
2477;DHT22;1249;51.270;6.756;2023-04-16T02:52:38;13.00;99.90
2477;DHT22;1249;51.270;6.756;2023-04-16T02:55:05;13.00;99.90
2477;DHT22;1249;51.270;6.756;2023-04-16T02:57:31;13.00;99.90
2477;DHT22;1249;51.270;6.756;2023-04-16T02:59:56;12.90;99.90
2477;DHT22;1249;51.270;6.756;2023-04-16T03:02:22;12.90;99.90
2477;DHT22;1249;51.270;6.756;2023-04-16T03:04:47;12.90;99.90
2477;DHT22;1249;51.270;6.756;2023-04-16T03:07:13;12.90;99.90
2477;DHT22;1249;51.270;6.756;2023-04-16T03:09:39;12.90;99.90
2477;DHT22;1249;51.270;6.756;2023-04-16T03:12:04;13.00;99.90
2477;DHT22;1249;51.270;6.756;2023-04-16T03:14:30;13.00;99.90
2477;DHT22;1249;51.270;6.756;2023-04-16T03:16:57;12.90;99.90
2477;DHT22;1249;51.270;6.756;2023-04-16T03:19:22;12.90;99.90
2477;DHT22;1249;51.270;6.756;2023-04-16T03:21:48;12.90;99.90
2477;DHT22;1249;51.270;6.756;2023-04-16T03:24:14;12.90;99.90
2477;DHT22;1249;51.270;6.756;2023-04-16T03:26:39;12.90;99.90
2477;DHT22;1249;51.270;6.756;2023-04-16T03:29:05;12.90;99.90
2477;DHT22;1249;51.270;6.756;2023-04-16T03:31:31;12.90;99.90
2477;DHT22;1249;51.270;6.756;2023-04-16T03:33:56;12.90;99.90
2477;DHT22;1249;51.270;6.756;2023-04-16T03:36:22;12.90;99.90
2477;DHT22;1249;51.270;6.756;2023-04-16T03:38:48;12.90;99.90
2477;DHT22;1249;51.270;6.756;2023-04-16T03:41:14;12.80;99.90
2477;DHT22;1249;51.270;6.756;2023-04-16T03:43:42;12.90;99.90
2477;DHT22;1249;51.270;6.756;2023-04-16T03:46:07;12.80;99.90
2477;DHT22;1249;51.270;6.756;2023-04-16T03:48:33;12.90;99.90
2477;DHT22;1249;51.270;6.756;2023-04-16T03:50:58;12.90;99.90
2477;DHT22;1249;51.270;6.756;2023-04-16T03:53:24;12.90;99.90
2477;DHT22;1249;51.270;6.756;2023-04-16T03:55:50;12.80;99.90
2477;DHT22;1249;51.270;6.756;2023-04-16T03:58:16;12.80;99.90
2477;DHT22;1249;51.270;6.756;2023-04-16T04:00:42;12.90;99.90
2477;DHT22;1249;51.270;6.756;2023-04-16T04:03:09;12.80;99.90
2477;DHT22;1249;51.270;6.756;2023-04-16T04:05:37;12.80;99.90
2477;DHT22;1249;51.270;6.756;2023-04-16T04:08:03;12.80;99.90
2477;DHT22;1249;51.270;6.756;2023-04-16T04:10:31;12.80;99.90
2477;DHT22;1249;51.270;6.756;2023-04-16T04:12:57;12.90;99.90
2477;DHT22;1249;51.270;6.756;2023-04-16T04:15:23;12.80;99.90
2477;DHT22;1249;51.270;6.756;2023-04-16T04:17:48;12.80;99.90
2477;DHT22;1249;51.270;6.756;2023-04-16T04:20:14;12.90;99.90
2477;DHT22;1249;51.270;6.756;2023-04-16T04:22:42;12.80;99.90
2477;DHT22;1249;51.270;6.756;2023-04-16T04:25:12;12.80;99.90
2477;DHT22;1249;51.270;6.756;2023-04-16T04:27:38;12.80;99.90
2477;DHT22;1249;51.270;6.756;2023-04-16T04:30:04;12.80;99.90
2477;DHT22;1249;51.270;6.756;2023-04-16T04:32:30;12.80;99.90
2477;DHT22;1249;51.270;6.756;2023-04-16T04:34:56;12.80;99.90
2477;DHT22;1249;51.270;6.756;2023-04-16T04:37:21;12.80;99.90
2477;DHT22;1249;51.270;6.756;2023-04-16T04:39:47;12.80;99.90
2477;DHT22;1249;51.270;6.756;2023-04-16T04:42:14;12.80;99.90
2477;DHT22;1249;51.270;6.756;2023-04-16T04:44:39;12.90;99.90
2477;DHT22;1249;51.270;6.756;2023-04-16T04:47:05;12.80;99.90
2477;DHT22;1249;51.270;6.756;2023-04-16T04:49:31;12.80;99.90
2477;DHT22;1249;51.270;6.756;2023-04-16T04:51:56;12.80;99.90
2477;DHT22;1249;51.270;6.756;2023-04-16T04:54:22;12.80;99.90
2477;DHT22;1249;51.270;6.756;2023-04-16T04:56:47;12.80;99.90
2477;DHT22;1249;51.270;6.756;2023-04-16T04:59:13;12.80;99.90
2477;DHT22;1249;51.270;6.756;2023-04-16T05:01:38;12.80;99.90
2477;DHT22;1249;51.270;6.756;2023-04-16T05:04:04;12.80;99.90
2477;DHT22;1249;51.270;6.756;2023-04-16T05:06:29;12.80;99.90
2477;DHT22;1249;51.270;6.756;2023-04-16T05:08:55;12.80;99.90
2477;DHT22;1249;51.270;6.756;2023-04-16T05:11:21;12.80;99.90
2477;DHT22;1249;51.270;6.756;2023-04-16T05:13:47;12.80;99.90
2477;DHT22;1249;51.270;6.756;2023-04-16T05:16:12;12.80;99.90
2477;DHT22;1249;51.270;6.756;2023-04-16T05:18:38;12.80;99.90
2477;DHT22;1249;51.270;6.756;2023-04-16T05:21:04;12.90;99.90
2477;DHT22;1249;51.270;6.756;2023-04-16T05:23:29;12.80;99.90
2477;DHT22;1249;51.270;6.756;2023-04-16T05:25:55;12.70;99.90
2477;DHT22;1249;51.270;6.756;2023-04-16T05:28:20;12.80;99.90
2477;DHT22;1249;51.270;6.756;2023-04-16T05:30:46;12.80;99.90
2477;DHT22;1249;51.270;6.756;2023-04-16T05:33:11;12.90;99.90
2477;DHT22;1249;51.270;6.756;2023-04-16T05:35:37;13.30;99.90
2477;DHT22;1249;51.270;6.756;2023-04-16T05:38:03;13.70;99.90
2477;DHT22;1249;51.270;6.756;2023-04-16T05:40:29;14.00;99.90
2477;DHT22;1249;51.270;6.756;2023-04-16T05:42:54;14.20;99.90
2477;DHT22;1249;51.270;6.756;2023-04-16T05:45:20;14.30;99.90
2477;DHT22;1249;51.270;6.756;2023-04-16T05:47:46;14.50;99.90
2477;DHT22;1249;51.270;6.756;2023-04-16T05:50:12;14.60;99.90
2477;DHT22;1249;51.270;6.756;2023-04-16T05:52:37;14.70;99.90
2477;DHT22;1249;51.270;6.756;2023-04-16T05:55:04;14.70;99.90
2477;DHT22;1249;51.270;6.756;2023-04-16T05:57:29;14.90;99.90
2477;DHT22;1249;51.270;6.756;2023-04-16T05:59:55;14.90;99.90
2477;DHT22;1249;51.270;6.756;2023-04-16T06:02:20;15.00;99.90
2477;DHT22;1249;51.270;6.756;2023-04-16T06:04:46;15.00;99.90
2477;DHT22;1249;51.270;6.756;2023-04-16T06:07:11;15.10;99.90
2477;DHT22;1249;51.270;6.756;2023-04-16T06:09:37;15.10;99.90
2477;DHT22;1249;51.270;6.756;2023-04-16T06:12:03;15.10;99.90
2477;DHT22;1249;51.270;6.756;2023-04-16T06:14:29;15.20;99.90
2477;DHT22;1249;51.270;6.756;2023-04-16T06:16:54;15.20;99.90
2477;DHT22;1249;51.270;6.756;2023-04-16T06:19:20;15.30;99.90
2477;DHT22;1249;51.270;6.756;2023-04-16T06:21:46;15.30;99.90
2477;DHT22;1249;51.270;6.756;2023-04-16T06:24:11;15.30;99.90
2477;DHT22;1249;51.270;6.756;2023-04-16T06:26:37;15.30;99.90
2477;DHT22;1249;51.270;6.756;2023-04-16T06:29:03;15.30;99.90
2477;DHT22;1249;51.270;6.756;2023-04-16T06:31:29;15.30;99.90
2477;DHT22;1249;51.270;6.756;2023-04-16T06:33:55;15.30;99.90
2477;DHT22;1249;51.270;6.756;2023-04-16T06:36:20;15.30;99.90
2477;DHT22;1249;51.270;6.756;2023-04-16T06:38:46;15.40;99.90
2477;DHT22;1249;51.270;6.756;2023-04-16T06:41:13;15.40;99.90
2477;DHT22;1249;51.270;6.756;2023-04-16T06:43:38;15.40;99.90
2477;DHT22;1249;51.270;6.756;2023-04-16T06:46:04;15.50;99.90
2477;DHT22;1249;51.270;6.756;2023-04-16T06:48:30;15.50;99.90
2477;DHT22;1249;51.270;6.756;2023-04-16T06:50:55;15.50;99.90
2477;DHT22;1249;51.270;6.756;2023-04-16T06:53:22;15.50;99.90
2477;DHT22;1249;51.270;6.756;2023-04-16T06:55:48;15.50;99.90
2477;DHT22;1249;51.270;6.756;2023-04-16T06:58:13;15.60;99.90
2477;DHT22;1249;51.270;6.756;2023-04-16T07:00:39;15.60;99.90
2477;DHT22;1249;51.270;6.756;2023-04-16T07:03:04;15.60;99.90
2477;DHT22;1249;51.270;6.756;2023-04-16T07:05:30;15.60;99.90
2477;DHT22;1249;51.270;6.756;2023-04-16T07:07:56;15.60;99.90
2477;DHT22;1249;51.270;6.756;2023-04-16T07:10:22;15.60;99.90
2477;DHT22;1249;51.270;6.756;2023-04-16T07:12:47;15.70;99.90
2477;DHT22;1249;51.270;6.756;2023-04-16T07:15:13;15.70;99.90
2477;DHT22;1249;51.270;6.756;2023-04-16T07:17:38;15.70;99.90
2477;DHT22;1249;51.270;6.756;2023-04-16T07:20:05;15.80;99.90
2477;DHT22;1249;51.270;6.756;2023-04-16T07:22:30;15.80;99.90
2477;DHT22;1249;51.270;6.756;2023-04-16T07:24:56;15.80;99.90
2477;DHT22;1249;51.270;6.756;2023-04-16T07:27:22;15.90;99.90
2477;DHT22;1249;51.270;6.756;2023-04-16T07:29:47;15.90;99.90
2477;DHT22;1249;51.270;6.756;2023-04-16T07:32:14;15.90;99.90
2477;DHT22;1249;51.270;6.756;2023-04-16T07:34:40;15.90;99.90
2477;DHT22;1249;51.270;6.756;2023-04-16T07:37:07;16.00;99.90
2477;DHT22;1249;51.270;6.756;2023-04-16T07:39:33;16.00;99.90
2477;DHT22;1249;51.270;6.756;2023-04-16T07:41:58;16.00;99.90
2477;DHT22;1249;51.270;6.756;2023-04-16T07:44:24;16.10;99.90
2477;DHT22;1249;51.270;6.756;2023-04-16T07:46:49;16.10;99.90
2477;DHT22;1249;51.270;6.756;2023-04-16T07:49:15;16.10;99.90
2477;DHT22;1249;51.270;6.756;2023-04-16T07:51:41;16.20;99.90
2477;DHT22;1249;51.270;6.756;2023-04-16T07:54:06;16.20;99.90
2477;DHT22;1249;51.270;6.756;2023-04-16T07:56:32;16.20;99.90
2477;DHT22;1249;51.270;6.756;2023-04-16T07:58:57;16.30;99.90
2477;DHT22;1249;51.270;6.756;2023-04-16T08:01:23;16.30;99.90
2477;DHT22;1249;51.270;6.756;2023-04-16T08:03:48;16.40;99.90
2477;DHT22;1249;51.270;6.756;2023-04-16T08:06:15;16.50;99.90
2477;DHT22;1249;51.270;6.756;2023-04-16T08:08:40;16.50;99.90
2477;DHT22;1249;51.270;6.756;2023-04-16T08:11:06;16.50;99.90
2477;DHT22;1249;51.270;6.756;2023-04-16T08:13:32;16.50;99.90
2477;DHT22;1249;51.270;6.756;2023-04-16T08:15:58;16.50;99.90
2477;DHT22;1249;51.270;6.756;2023-04-16T08:18:23;16.60;99.90
2477;DHT22;1249;51.270;6.756;2023-04-16T08:20:49;16.70;99.90
2477;DHT22;1249;51.270;6.756;2023-04-16T08:23:14;16.70;99.90
2477;DHT22;1249;51.270;6.756;2023-04-16T08:25:40;16.70;99.90
2477;DHT22;1249;51.270;6.756;2023-04-16T08:28:06;16.80;99.90
2477;DHT22;1249;51.270;6.756;2023-04-16T08:30:31;16.80;99.90
2477;DHT22;1249;51.270;6.756;2023-04-16T08:32:57;16.90;99.90
2477;DHT22;1249;51.270;6.756;2023-04-16T08:35:23;16.90;99.90
2477;DHT22;1249;51.270;6.756;2023-04-16T08:37:48;16.90;99.90
2477;DHT22;1249;51.270;6.756;2023-04-16T08:40:14;17.00;99.90
2477;DHT22;1249;51.270;6.756;2023-04-16T08:42:48;17.10;99.90
2477;DHT22;1249;51.270;6.756;2023-04-16T08:45:16;17.10;99.90
2477;DHT22;1249;51.270;6.756;2023-04-16T08:47:49;17.20;99.90
2477;DHT22;1249;51.270;6.756;2023-04-16T08:50:17;17.20;99.90
2477;DHT22;1249;51.270;6.756;2023-04-16T08:52:55;17.20;99.90
2477;DHT22;1249;51.270;6.756;2023-04-16T08:55:26;17.20;99.90
2477;DHT22;1249;51.270;6.756;2023-04-16T08:57:59;17.30;99.90
2477;DHT22;1249;51.270;6.756;2023-04-16T09:00:25;17.30;99.90
2477;DHT22;1249;51.270;6.756;2023-04-16T09:02:52;17.30;99.90
2477;DHT22;1249;51.270;6.756;2023-04-16T09:05:18;17.40;99.90
2477;DHT22;1249;51.270;6.756;2023-04-16T09:07:46;17.50;99.90
2477;DHT22;1249;51.270;6.756;2023-04-16T09:10:16;17.60;99.90
2477;DHT22;1249;51.270;6.756;2023-04-16T09:12:43;17.70;99.90
2477;DHT22;1249;51.270;6.756;2023-04-16T09:15:09;17.80;99.90
2477;DHT22;1249;51.270;6.756;2023-04-16T09:17:35;17.80;99.90
2477;DHT22;1249;51.270;6.756;2023-04-16T09:20:02;17.90;99.90
2477;DHT22;1249;51.270;6.756;2023-04-16T09:22:30;17.90;99.90
2477;DHT22;1249;51.270;6.756;2023-04-16T09:24:56;17.90;99.90
2477;DHT22;1249;51.270;6.756;2023-04-16T09:27:21;17.90;99.90
2477;DHT22;1249;51.270;6.756;2023-04-16T09:29:48;17.80;99.90
2477;DHT22;1249;51.270;6.756;2023-04-16T09:32:14;17.90;99.90
2477;DHT22;1249;51.270;6.756;2023-04-16T09:34:59;17.90;99.90
2477;DHT22;1249;51.270;6.756;2023-04-16T09:37:26;17.90;99.90
2477;DHT22;1249;51.270;6.756;2023-04-16T09:39:58;17.90;99.90
2477;DHT22;1249;51.270;6.756;2023-04-16T09:42:27;17.90;99.90
2477;DHT22;1249;51.270;6.756;2023-04-16T09:44:53;18.00;99.90
2477;DHT22;1249;51.270;6.756;2023-04-16T09:47:20;18.10;99.90
2477;DHT22;1249;51.270;6.756;2023-04-16T09:49:46;18.20;99.90
2477;DHT22;1249;51.270;6.756;2023-04-16T09:52:17;18.20;99.90
2477;DHT22;1249;51.270;6.756;2023-04-16T09:54:50;18.20;99.90
2477;DHT22;1249;51.270;6.756;2023-04-16T09:57:20;18.20;99.90
2477;DHT22;1249;51.270;6.756;2023-04-16T09:59:46;18.10;99.90
2477;DHT22;1249;51.270;6.756;2023-04-16T10:02:12;18.20;99.90
2477;DHT22;1249;51.270;6.756;2023-04-16T10:04:48;18.20;99.90
2477;DHT22;1249;51.270;6.756;2023-04-16T10:07:14;18.10;99.90
2477;DHT22;1249;51.270;6.756;2023-04-16T10:09:40;18.10;99.90
2477;DHT22;1249;51.270;6.756;2023-04-16T10:12:06;18.10;99.90
2477;DHT22;1249;51.270;6.756;2023-04-16T10:14:32;18.10;99.90
2477;DHT22;1249;51.270;6.756;2023-04-16T10:17:02;18.20;99.90
2477;DHT22;1249;51.270;6.756;2023-04-16T10:19:28;18.20;99.90
2477;DHT22;1249;51.270;6.756;2023-04-16T10:21:56;18.20;99.90
2477;DHT22;1249;51.270;6.756;2023-04-16T10:24:23;18.30;99.90
2477;DHT22;1249;51.270;6.756;2023-04-16T10:26:51;18.20;99.90
2477;DHT22;1249;51.270;6.756;2023-04-16T10:29:18;18.40;99.90
2477;DHT22;1249;51.270;6.756;2023-04-16T10:31:44;18.40;99.90
2477;DHT22;1249;51.270;6.756;2023-04-16T10:34:11;18.40;99.90
2477;DHT22;1249;51.270;6.756;2023-04-16T10:36:37;18.60;99.90
2477;DHT22;1249;51.270;6.756;2023-04-16T10:39:03;18.60;99.90
2477;DHT22;1249;51.270;6.756;2023-04-16T10:41:31;18.60;99.90
2477;DHT22;1249;51.270;6.756;2023-04-16T10:44:08;18.70;99.90
2477;DHT22;1249;51.270;6.756;2023-04-16T10:46:42;18.70;99.90
2477;DHT22;1249;51.270;6.756;2023-04-16T10:49:37;18.90;99.90
2477;DHT22;1249;51.270;6.756;2023-04-16T10:52:09;19.00;99.90
2477;DHT22;1249;51.270;6.756;2023-04-16T10:54:36;19.00;99.90
2477;DHT22;1249;51.270;6.756;2023-04-16T10:57:07;18.90;99.90
2477;DHT22;1249;51.270;6.756;2023-04-16T10:59:34;19.00;99.90
2477;DHT22;1249;51.270;6.756;2023-04-16T11:02:05;19.00;99.90
2477;DHT22;1249;51.270;6.756;2023-04-16T11:04:38;19.00;99.90
2477;DHT22;1249;51.270;6.756;2023-04-16T11:12:22;19.00;99.90
2477;DHT22;1249;51.270;6.756;2023-04-16T11:14:52;19.00;99.90
2477;DHT22;1249;51.270;6.756;2023-04-16T11:17:19;19.00;99.90
2477;DHT22;1249;51.270;6.756;2023-04-16T11:19:45;19.00;99.90
2477;DHT22;1249;51.270;6.756;2023-04-16T11:22:12;19.00;99.90
2477;DHT22;1249;51.270;6.756;2023-04-16T11:24:39;19.40;99.90
2477;DHT22;1249;51.270;6.756;2023-04-16T11:27:06;19.50;99.90
2477;DHT22;1249;51.270;6.756;2023-04-16T11:29:32;19.50;99.90
2477;DHT22;1249;51.270;6.756;2023-04-16T11:31:57;19.50;99.90
2477;DHT22;1249;51.270;6.756;2023-04-16T11:34:23;19.50;99.90
2477;DHT22;1249;51.270;6.756;2023-04-16T11:36:50;19.50;99.90
2477;DHT22;1249;51.270;6.756;2023-04-16T11:39:16;19.70;99.90
2477;DHT22;1249;51.270;6.756;2023-04-16T11:46:46;19.60;99.90
2477;DHT22;1249;51.270;6.756;2023-04-16T11:49:11;19.40;99.90
2477;DHT22;1249;51.270;6.756;2023-04-16T11:51:45;19.30;99.90
2477;DHT22;1249;51.270;6.756;2023-04-16T11:54:21;19.30;99.90
2477;DHT22;1249;51.270;6.756;2023-04-16T11:56:50;19.40;99.90
2477;DHT22;1249;51.270;6.756;2023-04-16T11:59:20;19.60;99.90
2477;DHT22;1249;51.270;6.756;2023-04-16T12:01:52;19.70;99.90
2477;DHT22;1249;51.270;6.756;2023-04-16T12:04:24;19.90;99.90
2477;DHT22;1249;51.270;6.756;2023-04-16T12:09:33;20.00;99.90
2477;DHT22;1249;51.270;6.756;2023-04-16T12:12:02;20.10;99.90
2477;DHT22;1249;51.270;6.756;2023-04-16T12:14:28;20.40;99.90
2477;DHT22;1249;51.270;6.756;2023-04-16T12:16:54;21.00;99.90
2477;DHT22;1249;51.270;6.756;2023-04-16T12:19:20;21.60;99.90
2477;DHT22;1249;51.270;6.756;2023-04-16T12:21:47;21.90;99.90
2477;DHT22;1249;51.270;6.756;2023-04-16T12:24:17;22.00;99.90
2477;DHT22;1249;51.270;6.756;2023-04-16T12:26:53;22.20;99.90
2477;DHT22;1249;51.270;6.756;2023-04-16T12:31:48;22.20;99.90
2477;DHT22;1249;51.270;6.756;2023-04-16T12:34:14;22.10;99.90
2477;DHT22;1249;51.270;6.756;2023-04-16T12:36:42;21.90;99.90
2477;DHT22;1249;51.270;6.756;2023-04-16T12:39:08;21.80;99.90
2477;DHT22;1249;51.270;6.756;2023-04-16T12:41:36;21.60;99.90
2477;DHT22;1249;51.270;6.756;2023-04-16T12:44:07;21.50;99.90
2477;DHT22;1249;51.270;6.756;2023-04-16T12:46:37;21.30;99.90
2477;DHT22;1249;51.270;6.756;2023-04-16T12:49:03;21.30;99.90
2477;DHT22;1249;51.270;6.756;2023-04-16T12:51:29;21.30;99.90
2477;DHT22;1249;51.270;6.756;2023-04-16T12:53:55;21.30;99.90
2477;DHT22;1249;51.270;6.756;2023-04-16T12:56:20;21.40;99.90
2477;DHT22;1249;51.270;6.756;2023-04-16T12:58:46;21.50;99.90
2477;DHT22;1249;51.270;6.756;2023-04-16T13:01:14;21.50;99.90
2477;DHT22;1249;51.270;6.756;2023-04-16T13:03:40;21.50;99.90
2477;DHT22;1249;51.270;6.756;2023-04-16T13:06:07;21.60;99.90
2477;DHT22;1249;51.270;6.756;2023-04-16T13:08:32;21.60;99.90
2477;DHT22;1249;51.270;6.756;2023-04-16T13:10:58;21.60;99.90
2477;DHT22;1249;51.270;6.756;2023-04-16T13:13:23;21.50;99.90
2477;DHT22;1249;51.270;6.756;2023-04-16T13:15:49;21.50;99.90
2477;DHT22;1249;51.270;6.756;2023-04-16T13:18:15;21.40;99.90
2477;DHT22;1249;51.270;6.756;2023-04-16T13:20:40;21.30;99.90
2477;DHT22;1249;51.270;6.756;2023-04-16T13:23:06;21.10;99.90
2477;DHT22;1249;51.270;6.756;2023-04-16T13:25:31;21.00;99.90
2477;DHT22;1249;51.270;6.756;2023-04-16T13:27:57;21.00;99.90
2477;DHT22;1249;51.270;6.756;2023-04-16T13:30:22;20.90;99.90
2477;DHT22;1249;51.270;6.756;2023-04-16T13:32:48;20.90;99.90
2477;DHT22;1249;51.270;6.756;2023-04-16T13:35:14;20.90;99.90
2477;DHT22;1249;51.270;6.756;2023-04-16T13:37:39;20.80;99.90
2477;DHT22;1249;51.270;6.756;2023-04-16T13:40:06;20.70;99.90
2477;DHT22;1249;51.270;6.756;2023-04-16T13:42:31;20.60;99.90
2477;DHT22;1249;51.270;6.756;2023-04-16T13:44:57;20.60;99.90
2477;DHT22;1249;51.270;6.756;2023-04-16T13:47:23;20.50;99.90
2477;DHT22;1249;51.270;6.756;2023-04-16T13:49:49;20.40;99.90
2477;DHT22;1249;51.270;6.756;2023-04-16T13:52:14;20.30;99.90
2477;DHT22;1249;51.270;6.756;2023-04-16T13:54:40;20.30;99.90
2477;DHT22;1249;51.270;6.756;2023-04-16T13:57:05;20.30;99.90
2477;DHT22;1249;51.270;6.756;2023-04-16T13:59:31;20.20;99.90
2477;DHT22;1249;51.270;6.756;2023-04-16T14:01:57;20.20;99.90
2477;DHT22;1249;51.270;6.756;2023-04-16T14:04:23;20.10;99.90
2477;DHT22;1249;51.270;6.756;2023-04-16T14:06:49;20.20;99.90
2477;DHT22;1249;51.270;6.756;2023-04-16T14:09:14;20.10;99.90
2477;DHT22;1249;51.270;6.756;2023-04-16T14:11:40;20.10;99.90
2477;DHT22;1249;51.270;6.756;2023-04-16T14:14:06;20.10;99.90
2477;DHT22;1249;51.270;6.756;2023-04-16T14:16:32;20.10;99.70
2477;DHT22;1249;51.270;6.756;2023-04-16T14:18:57;20.20;99.30
2477;DHT22;1249;51.270;6.756;2023-04-16T14:21:23;20.30;99.30
2477;DHT22;1249;51.270;6.756;2023-04-16T14:23:48;20.40;98.60
2477;DHT22;1249;51.270;6.756;2023-04-16T14:26:14;20.40;98.20
2477;DHT22;1249;51.270;6.756;2023-04-16T14:28:40;20.50;97.60
2477;DHT22;1249;51.270;6.756;2023-04-16T14:31:06;20.50;97.30
2477;DHT22;1249;51.270;6.756;2023-04-16T14:33:31;20.50;97.10
2477;DHT22;1249;51.270;6.756;2023-04-16T14:35:57;20.40;99.20
2477;DHT22;1249;51.270;6.756;2023-04-16T14:38:22;20.40;99.90
2477;DHT22;1249;51.270;6.756;2023-04-16T14:40:48;20.40;98.70
2477;DHT22;1249;51.270;6.756;2023-04-16T14:43:14;20.30;97.70
2477;DHT22;1249;51.270;6.756;2023-04-16T14:45:39;20.30;97.20
2477;DHT22;1249;51.270;6.756;2023-04-16T14:48:05;20.30;96.60
2477;DHT22;1249;51.270;6.756;2023-04-16T14:50:33;20.30;96.50
2477;DHT22;1249;51.270;6.756;2023-04-16T14:53:02;20.20;96.20
2477;DHT22;1249;51.270;6.756;2023-04-16T14:55:28;20.20;96.10
2477;DHT22;1249;51.270;6.756;2023-04-16T14:57:53;20.10;95.80
2477;DHT22;1249;51.270;6.756;2023-04-16T15:00:19;20.10;95.50
2477;DHT22;1249;51.270;6.756;2023-04-16T15:02:45;20.00;95.80
2477;DHT22;1249;51.270;6.756;2023-04-16T15:05:12;20.00;96.50
2477;DHT22;1249;51.270;6.756;2023-04-16T15:07:38;20.00;96.00
2477;DHT22;1249;51.270;6.756;2023-04-16T15:10:04;20.00;95.50
2477;DHT22;1249;51.270;6.756;2023-04-16T15:12:29;20.00;95.10
2477;DHT22;1249;51.270;6.756;2023-04-16T15:14:55;20.00;95.00
2477;DHT22;1249;51.270;6.756;2023-04-16T15:17:21;19.90;94.80
2477;DHT22;1249;51.270;6.756;2023-04-16T15:19:46;19.90;94.30
2477;DHT22;1249;51.270;6.756;2023-04-16T15:22:12;19.80;94.50
2477;DHT22;1249;51.270;6.756;2023-04-16T15:24:39;19.80;94.70
2477;DHT22;1249;51.270;6.756;2023-04-16T15:27:04;19.80;95.30
2477;DHT22;1249;51.270;6.756;2023-04-16T15:29:31;19.70;96.00
2477;DHT22;1249;51.270;6.756;2023-04-16T15:31:56;19.80;96.60
2477;DHT22;1249;51.270;6.756;2023-04-16T15:34:22;19.80;97.60
2477;DHT22;1249;51.270;6.756;2023-04-16T15:36:48;19.80;99.30
2477;DHT22;1249;51.270;6.756;2023-04-16T15:39:13;19.80;99.90
2477;DHT22;1249;51.270;6.756;2023-04-16T15:41:39;19.70;99.90
2477;DHT22;1249;51.270;6.756;2023-04-16T15:44:05;19.70;99.90
2477;DHT22;1249;51.270;6.756;2023-04-16T15:46:30;19.60;99.90
2477;DHT22;1249;51.270;6.756;2023-04-16T15:48:56;19.80;99.90
2477;DHT22;1249;51.270;6.756;2023-04-16T15:51:22;19.80;99.90
2477;DHT22;1249;51.270;6.756;2023-04-16T15:53:47;19.80;99.90
2477;DHT22;1249;51.270;6.756;2023-04-16T15:56:15;19.70;99.90
2477;DHT22;1249;51.270;6.756;2023-04-16T15:58:41;19.70;99.90
2477;DHT22;1249;51.270;6.756;2023-04-16T16:01:07;19.70;99.90
2477;DHT22;1249;51.270;6.756;2023-04-16T16:03:33;19.70;99.90
2477;DHT22;1249;51.270;6.756;2023-04-16T16:06:00;19.70;99.90
2477;DHT22;1249;51.270;6.756;2023-04-16T16:08:28;19.60;99.90
2477;DHT22;1249;51.270;6.756;2023-04-16T16:10:58;19.60;99.90
2477;DHT22;1249;51.270;6.756;2023-04-16T16:13:24;19.60;99.90